• Join FlightAware (Why Join?)
  • Login
  • US Flag 
07:53PM EDT


 

Airport Tracker/Info


-or-


 

Live Flight TrackerFlight Track Log ✈ VRT51 ✈ 21-Aug-2013 ✈ KLIT - KROG

Flight Track Log - Related Links

Times and Time Zones

All times are in EDT time to prevent confusion due to time zone crossing. See the VRT51 flight status page for this flight to view local times or setup timezone preferences in your user account.

Time Position Orientation Groundspeed Altitude Reporting Facility
EDT Latitude Longitude Course Direction KTS MPH feet Rate Location/Type
02:52PM 34.6922 -92.2792 244° Southwest 207 238 2,500  Level Memphis Center
02:53PM 34.6847 -92.3575 263° West 266 306 4,700 2,700 Climbing Memphis Center
02:54PM 34.6789 -92.4583 266° West 289 333 8,000 5,100 Climbing Memphis Center
02:55PM 34.7019 -92.5750 284° West 293 337 16,000 3,120 Climbing Memphis Center
02:56PM 34.7311 -92.6869 288° West 320 368 14,900  Descending Memphis Center
02:57PM 34.8153 -92.7628 324° Northwest 344 396 16,000 540 Climbing Memphis Center
02:58PM 34.9056 -92.8361 326° Northwest 366 421 16,000  Level Memphis Center
02:59PM 34.9958 -92.9122 325° Northwest 380 437 16,000  Level Memphis Center
03:00PM 35.0881 -92.9911 325° Northwest 395 455 16,000 -60 Level Memphis Center
03:01PM 35.1803 -93.0678 326° Northwest 400 460 15,900 -60 Descending Memphis Center
03:02PM 35.2703 -93.1469 324° Northwest 400 460 15,900  Level Memphis Center
03:03PM 35.3522 -93.2183 325° Northwest 400 460 15,900  Level Memphis Center
03:04PM 35.4422 -93.2953 325° Northwest 400 460 16,000  Climbing Memphis Center
03:05PM 35.5322 -93.3725 325° Northwest 400 460 16,000 -60 Level Memphis Center
03:06PM 35.6239 -93.4525 325° Northwest 400 460 15,900  Descending Memphis Center
03:07PM 35.7139 -93.5300 325° Northwest 400 460 16,000 -420 Climbing Memphis Center
03:08PM 35.8122 -93.5928 333° Northwest 395 455 15,100 -1,020 Descending Memphis Center
03:09PM 35.9089 -93.6503 334° Northwest 388 447 14,000 -1,140 Descending Memphis Center
03:10PM 36.0011 -93.7078 333° Northwest 377 434 12,900 -1,200 Descending Memphis Center
03:11PM 36.0933 -93.7631 334° Northwest 372 428 11,700 -1,440 Descending Memphis Center
03:12PM 36.1753 -93.8203 331° Northwest 357 411 10,100 -1,980 Descending Memphis Center
03:13PM 36.2492 -93.8594 337° Northwest 319 367 7,800 -2,460 Descending Memphis Center
03:14PM 36.3147 -93.8983 334° Northwest 280 322 5,300 -1,440 Descending Memphis Center
03:15PM 36.3806 -93.9322 337° Northwest 266 306 5,000 -300 Descending Memphis Center
03:16PM 36.4247 -93.9908 313° West 246 283 4,700 -840 Descending Memphis Center
03:17PM 36.4272 -94.0503 273° West 182 209 3,400 -1,020 Descending Memphis Center
03:18PM 36.4194 -94.1014 259° West 169 194 2,700 -720 Descending Memphis Center
03:21PM 36.3667 -94.1000 North  Level FlightAware Approximate